LOT2306 ENGM-EPGD
Flight info
| Callsign | LOT2306 |
|---|---|
| Flight time | N/A |
| Altitude | 39000 |
| Route | OKSAT2C OKSAT L996 GETPA L727 NEGIL DCT PENOR DCT MOTAD N133 DOMAG T240 OGDAV OGDAV5T |
| Aircraft | B38M/M-SDE1FGHILORVWXY/HB1 |
Departure
| Time | 2026-04-30 22:16 |
|---|---|
| Airport | Oslo-Gardermoen International Airport (ENGM) |
Arrival
| Time | N/A |
|---|---|
| Airport | Gdańsk Lech Wałęsa Airport (EPGD) |
| Time | Latitude | Longitude | Altitude | Speed | Heading |
|---|---|---|---|---|---|
| 2026-04-30 21:48 | 60.19127 | 11.10700 | 684 ft | 0 kts | 196° |
| 2026-04-30 21:59 | 60.19127 | 11.10701 | 684 ft | 0 kts | 196° |
| 2026-04-30 21:59 | 60.19127 | 11.10700 | 684 ft | 0 kts | 196° |
| 2026-04-30 22:06 | 60.19131 | 11.10703 | 684 ft | 3 kts | 196° |
| 2026-04-30 22:06 | 60.19157 | 11.10717 | 686 ft | 4 kts | 196° |
| 2026-04-30 22:07 | 60.19171 | 11.10725 | 686 ft | 0 kts | 196° |
| 2026-04-30 22:10 | 60.19167 | 11.10725 | 686 ft | 1 kts | 180° |
| 2026-04-30 22:10 | 60.19165 | 11.10731 | 686 ft | 1 kts | 133° |
| 2026-04-30 22:10 | 60.19165 | 11.10804 | 686 ft | 11 kts | 91° |
| 2026-04-30 22:11 | 60.19197 | 11.11154 | 684 ft | 22 kts | 15° |
| 2026-04-30 22:11 | 60.19345 | 11.11236 | 680 ft | 19 kts | 16° |
| 2026-04-30 22:11 | 60.19483 | 11.11318 | 685 ft | 22 kts | 16° |
| 2026-04-30 22:12 | 60.19634 | 11.11405 | 682 ft | 17 kts | 15° |
| 2026-04-30 22:12 | 60.19734 | 11.11459 | 686 ft | 15 kts | 15° |
| 2026-04-30 22:12 | 60.19836 | 11.11520 | 685 ft | 16 kts | 17° |
| 2026-04-30 22:12 | 60.19943 | 11.11582 | 683 ft | 17 kts | 15° |
| 2026-04-30 22:13 | 60.20051 | 11.11644 | 689 ft | 10 kts | 16° |
| 2026-04-30 22:13 | 60.20086 | 11.11761 | 685 ft | 12 kts | 97° |
| 2026-04-30 22:13 | 60.20061 | 11.11935 | 686 ft | 13 kts | 106° |
| 2026-04-30 22:13 | 60.20039 | 11.12092 | 684 ft | 11 kts | 106° |
| 2026-04-30 22:14 | 60.19984 | 11.12171 | 686 ft | 1 kts | 193° |
| 2026-04-30 22:15 | 60.19977 | 11.12168 | 685 ft | 3 kts | 194° |
| 2026-04-30 22:15 | 60.19771 | 11.12053 | 688 ft | 70 kts | 196° |
| 2026-04-30 22:15 | 60.19043 | 11.11635 | 686 ft | 144 kts | 197° |
| 2026-04-30 22:15 | 60.17936 | 11.11002 | 1031 ft | 176 kts | 195° |
| 2026-04-30 22:16 | 60.16698 | 11.10284 | 1823 ft | 193 kts | 197° |
| 2026-04-30 22:16 | 60.15364 | 11.09545 | 2710 ft | 205 kts | 198° |
| 2026-04-30 22:17 | 60.11114 | 11.12948 | 5075 ft | 268 kts | 134° |
| 2026-04-30 22:17 | 60.09824 | 11.15733 | 5806 ft | 284 kts | 135° |
| 2026-04-30 22:17 | 60.07055 | 11.21615 | 7223 ft | 295 kts | 136° |
| 2026-04-30 22:18 | 60.05675 | 11.24652 | 7266 ft | 295 kts | 131° |
| 2026-04-30 22:18 | 60.02311 | 11.28315 | 7318 ft | 278 kts | 179° |
| 2026-04-30 22:19 | 59.98415 | 11.29721 | 8779 ft | 285 kts | 172° |
| 2026-04-30 22:19 | 59.96460 | 11.30592 | 9711 ft | 290 kts | 171° |
| 2026-04-30 22:19 | 59.92439 | 11.32486 | 11072 ft | 315 kts | 170° |
| 2026-04-30 22:20 | 59.90247 | 11.33555 | 11539 ft | 332 kts | 170° |
| 2026-04-30 22:20 | 59.85630 | 11.35829 | 13041 ft | 345 kts | 170° |
| 2026-04-30 22:20 | 59.83277 | 11.36982 | 13817 ft | 351 kts | 170° |
| 2026-04-30 22:21 | 59.80895 | 11.38148 | 14590 ft | 354 kts | 170° |
| 2026-04-30 22:21 | 59.78485 | 11.39325 | 15267 ft | 359 kts | 170° |
| 2026-04-30 22:21 | 59.76046 | 11.40514 | 15945 ft | 363 kts | 170° |
| 2026-04-30 22:21 | 59.73576 | 11.41717 | 16610 ft | 368 kts | 169° |
| 2026-04-30 22:22 | 59.71079 | 11.42931 | 17263 ft | 372 kts | 169° |
| 2026-04-30 22:22 | 59.68547 | 11.44159 | 17909 ft | 376 kts | 169° |
| 2026-04-30 22:22 | 59.65992 | 11.45398 | 18540 ft | 380 kts | 169° |
| 2026-04-30 22:22 | 59.63413 | 11.46645 | 19118 ft | 383 kts | 169° |
| 2026-04-30 22:23 | 59.60812 | 11.47902 | 19660 ft | 387 kts | 169° |
| 2026-04-30 22:23 | 59.58179 | 11.49171 | 20212 ft | 390 kts | 169° |
| 2026-04-30 22:23 | 59.55532 | 11.50446 | 20748 ft | 394 kts | 169° |
| 2026-04-30 22:23 | 59.52854 | 11.51733 | 21284 ft | 398 kts | 169° |
| 2026-04-30 22:24 | 59.50154 | 11.53028 | 21819 ft | 401 kts | 169° |
| 2026-04-30 22:24 | 59.47432 | 11.54332 | 22339 ft | 405 kts | 169° |
| 2026-04-30 22:24 | 59.44683 | 11.55647 | 22856 ft | 408 kts | 169° |
| 2026-04-30 22:24 | 59.41914 | 11.56969 | 23358 ft | 412 kts | 169° |
| 2026-04-30 22:25 | 59.39119 | 11.58301 | 23862 ft | 415 kts | 169° |
| 2026-04-30 22:25 | 59.36301 | 11.59642 | 24272 ft | 418 kts | 168° |
| 2026-04-30 22:25 | 59.33467 | 11.60989 | 24707 ft | 420 kts | 168° |
| 2026-04-30 22:25 | 59.30611 | 11.62343 | 25112 ft | 424 kts | 168° |
| 2026-04-30 22:26 | 59.24872 | 11.65056 | 25896 ft | 430 kts | 168° |
| 2026-04-30 22:26 | 59.21949 | 11.66435 | 26213 ft | 434 kts | 168° |
| 2026-04-30 22:26 | 59.19005 | 11.67821 | 26639 ft | 436 kts | 168° |
| 2026-04-30 22:27 | 59.16039 | 11.69215 | 27014 ft | 439 kts | 168° |
| 2026-04-30 22:27 | 59.13057 | 11.70614 | 27397 ft | 442 kts | 168° |
| 2026-04-30 22:27 | 59.07036 | 11.73430 | 28136 ft | 447 kts | 168° |
| 2026-04-30 22:28 | 59.00953 | 11.76266 | 28879 ft | 452 kts | 167° |
| 2026-04-30 22:28 | 58.97885 | 11.77692 | 29218 ft | 455 kts | 167° |
| 2026-04-30 22:29 | 58.88580 | 11.82001 | 30235 ft | 462 kts | 167° |
| 2026-04-30 22:29 | 58.85445 | 11.83448 | 30536 ft | 464 kts | 167° |
| 2026-04-30 22:30 | 58.72764 | 11.89271 | 31692 ft | 471 kts | 167° |
| 2026-04-30 22:31 | 58.63174 | 11.93645 | 32539 ft | 476 kts | 167° |
| 2026-04-30 22:32 | 58.54199 | 12.00949 | 33654 ft | 469 kts | 134° |
| 2026-04-30 22:32 | 58.49761 | 12.10072 | 34252 ft | 469 kts | 130° |
| 2026-04-30 22:33 | 58.43250 | 12.23966 | 35194 ft | 465 kts | 130° |
| 2026-04-30 22:33 | 58.38955 | 12.33164 | 35779 ft | 464 kts | 130° |
| 2026-04-30 22:34 | 58.32539 | 12.46843 | 36570 ft | 462 kts | 130° |
| 2026-04-30 22:35 | 58.28250 | 12.55944 | 37050 ft | 461 kts | 130° |
| 2026-04-30 22:36 | 58.19352 | 12.73426 | 37878 ft | 460 kts | 133° |
| 2026-04-30 22:36 | 58.17101 | 12.77729 | 38072 ft | 460 kts | 133° |
| 2026-04-30 22:37 | 58.10346 | 12.90608 | 38613 ft | 459 kts | 134° |
| 2026-04-30 22:37 | 58.08096 | 12.94882 | 38770 ft | 458 kts | 134° |
| 2026-04-30 22:37 | 58.03597 | 13.03405 | 39091 ft | 458 kts | 134° |
| 2026-04-30 22:38 | 57.99126 | 13.11841 | 39333 ft | 457 kts | 134° |
| 2026-04-30 22:39 | 57.92366 | 13.24538 | 39385 ft | 457 kts | 134° |
| 2026-04-30 22:40 | 57.78829 | 13.49752 | 39404 ft | 457 kts | 134° |
| 2026-04-30 22:41 | 57.67514 | 13.70609 | 39395 ft | 457 kts | 134° |
| 2026-04-30 22:43 | 57.53882 | 13.95485 | 39413 ft | 457 kts | 134° |
| 2026-04-30 22:44 | 57.44783 | 14.11936 | 39379 ft | 458 kts | 134° |
| 2026-04-30 22:45 | 57.31033 | 14.36570 | 39377 ft | 458 kts | 134° |
| 2026-04-30 22:47 | 57.17230 | 14.61029 | 39383 ft | 460 kts | 134° |
| 2026-04-30 22:48 | 57.07973 | 14.77286 | 39382 ft | 460 kts | 134° |
| 2026-04-30 22:49 | 56.94791 | 15.00230 | 39388 ft | 463 kts | 134° |
| 2026-04-30 22:51 | 56.80733 | 15.24443 | 39379 ft | 463 kts | 134° |
| 2026-04-30 22:52 | 56.73681 | 15.36490 | 39386 ft | 464 kts | 134° |
| 2026-04-30 22:53 | 56.64263 | 15.52479 | 39371 ft | 464 kts | 134° |
| 2026-04-30 22:53 | 56.57167 | 15.64451 | 39374 ft | 464 kts | 134° |
| 2026-04-30 22:55 | 56.45312 | 15.84309 | 39374 ft | 463 kts | 134° |
| 2026-04-30 22:56 | 56.35822 | 16.00079 | 39373 ft | 463 kts | 134° |
| 2026-04-30 22:57 | 56.23975 | 16.19608 | 39374 ft | 462 kts | 134° |
| 2026-04-30 22:58 | 56.14481 | 16.35135 | 39375 ft | 461 kts | 134° |
| 2026-04-30 22:59 | 56.00221 | 16.58257 | 39373 ft | 461 kts | 134° |